createdAt,value
2019-01-08T00:01:12.801Z,23.52
2019-01-08T00:03:43.113Z,23.27
2019-01-08T00:06:15.632Z,21.95
2019-01-08T00:08:49.111Z,22.47
2019-01-08T00:11:20.684Z,21.62
2019-01-08T00:13:51.054Z,18.13
2019-01-08T00:16:23.180Z,16.82
2019-01-08T00:18:53.783Z,13.87
2019-01-08T00:21:25.653Z,12.07
2019-01-08T00:23:56.185Z,10.50
2019-01-08T00:26:26.928Z,10.00
2019-01-08T00:28:58.470Z,8.33
2019-01-08T00:31:28.751Z,7.17
2019-01-08T00:33:59.481Z,7.03
2019-01-08T00:36:30.777Z,6.47
2019-01-08T00:39:04.387Z,7.47
2019-01-08T00:41:34.681Z,6.57
2019-01-08T00:44:06.003Z,6.92
2019-01-08T00:46:36.279Z,7.23
2019-01-08T00:49:07.029Z,8.73
2019-01-08T00:51:37.294Z,7.83
2019-01-08T00:54:07.879Z,8.40
2019-01-08T00:56:38.214Z,7.93
2019-01-08T00:59:09.447Z,8.07
2019-01-08T01:01:48.280Z,8.63
2019-01-08T01:04:13.899Z,7.70
2019-01-08T01:06:44.184Z,7.70
2019-01-08T01:09:15.947Z,6.10
2019-01-08T01:11:46.234Z,5.97
2019-01-08T01:14:18.327Z,5.22
2019-01-08T01:16:49.692Z,5.07
2019-01-08T01:19:24.405Z,4.50
2019-01-08T01:21:54.697Z,4.23
2019-01-08T01:24:27.965Z,4.40
2019-01-08T01:26:58.242Z,3.90
2019-01-08T01:29:28.805Z,4.00
2019-01-08T01:31:59.201Z,4.03
2019-01-08T01:34:29.577Z,4.20
2019-01-08T01:37:06.224Z,3.95
2019-01-08T01:39:38.042Z,3.45
2019-01-08T01:42:08.544Z,4.17
2019-01-08T01:44:43.239Z,3.72
2019-01-08T01:47:13.684Z,3.10
2019-01-08T01:49:44.263Z,3.80
2019-01-08T01:52:15.141Z,3.77
2019-01-08T01:54:45.662Z,4.17
2019-01-08T01:57:15.975Z,3.60
2019-01-08T01:59:46.298Z,3.57
2019-01-08T02:02:16.965Z,3.87
2019-01-08T02:04:49.221Z,4.10
2019-01-08T02:07:19.749Z,3.90
2019-01-08T02:09:50.099Z,3.37
2019-01-08T02:12:22.617Z,3.65
2019-01-08T02:14:53.142Z,3.90
2019-01-08T02:17:23.682Z,3.83
2019-01-08T02:19:53.972Z,3.77
2019-01-08T02:22:24.581Z,3.47
2019-01-08T02:24:58.059Z,3.83
2019-01-08T02:27:28.652Z,4.97
2019-01-08T02:30:00.721Z,5.30
2019-01-08T02:32:32.396Z,4.53
2019-01-08T02:35:03.269Z,5.73
2019-01-08T02:37:34.469Z,4.52
2019-01-08T02:40:05.406Z,4.73
2019-01-08T02:42:38.194Z,4.67
2019-01-08T02:45:10.054Z,3.67
2019-01-08T02:47:42.176Z,4.20
2019-01-08T02:50:14.480Z,4.87
2019-01-08T02:52:45.076Z,4.17
2019-01-08T02:55:16.863Z,4.13
2019-01-08T02:57:47.895Z,4.58
2019-01-08T03:00:18.522Z,4.50
2019-01-08T03:02:48.847Z,3.57
2019-01-08T03:05:19.702Z,3.87
2019-01-08T03:07:51.275Z,4.10
2019-01-08T03:10:21.856Z,4.57
2019-01-08T03:12:55.410Z,4.27
2019-01-08T03:15:24.380Z,4.83
2019-01-08T03:17:58.146Z,4.40
2019-01-08T03:20:30.165Z,5.22
2019-01-08T03:23:00.466Z,4.20
2019-01-08T03:25:31.380Z,4.77
2019-01-08T03:28:01.738Z,4.90
2019-01-08T03:30:32.132Z,4.00
2019-01-08T03:33:02.447Z,3.83
2019-01-08T03:35:36.090Z,5.27
2019-01-08T03:38:06.542Z,4.17
2019-01-08T03:40:42.048Z,3.80
2019-01-08T03:43:12.343Z,4.00
2019-01-08T03:45:42.767Z,3.63
2019-01-08T03:48:13.470Z,3.57
2019-01-08T03:50:43.859Z,3.13
2019-01-08T03:53:15.929Z,4.37
2019-01-08T03:55:46.652Z,3.83
2019-01-08T03:58:19.019Z,3.90
2019-01-08T04:00:49.934Z,4.10
2019-01-08T04:03:20.280Z,3.87
2019-01-08T04:05:52.997Z,3.77
2019-01-08T04:08:23.288Z,3.87
2019-01-08T04:11:00.606Z,3.70
2019-01-08T04:13:29.622Z,3.87
2019-01-08T04:16:01.094Z,3.40
2019-01-08T04:18:31.537Z,3.20
2019-01-08T04:21:03.885Z,3.52
2019-01-08T04:23:34.436Z,4.33
2019-01-08T04:26:04.744Z,3.37
2019-01-08T04:28:39.510Z,4.27
2019-01-08T04:31:09.540Z,4.72
2019-01-08T04:33:39.858Z,3.27
2019-01-08T04:36:11.811Z,3.37
2019-01-08T04:38:42.439Z,3.80
2019-01-08T04:41:33.228Z,3.73
2019-01-08T04:43:44.802Z,3.98
2019-01-08T04:46:15.410Z,3.90
2019-01-08T04:48:46.006Z,3.67
2019-01-08T04:51:16.404Z,3.67
2019-01-08T04:53:47.899Z,3.37
2019-01-08T04:56:18.199Z,4.03
2019-01-08T04:58:50.160Z,4.03
2019-01-08T05:01:20.486Z,4.17
2019-01-08T05:03:51.062Z,4.00
2019-01-08T05:06:21.395Z,3.83
2019-01-08T05:08:51.977Z,3.70
2019-01-08T05:11:22.300Z,4.37
2019-01-08T05:13:52.935Z,3.70
2019-01-08T05:16:23.220Z,4.13
2019-01-08T05:18:54.435Z,3.27
2019-01-08T05:21:24.774Z,3.47
2019-01-08T05:23:56.561Z,3.28
2019-01-08T05:26:26.877Z,4.47
2019-01-08T05:28:57.698Z,4.53
2019-01-08T05:31:28.015Z,3.63
2019-01-08T05:33:59.048Z,3.70
2019-01-08T05:36:29.508Z,4.23
2019-01-08T05:38:59.803Z,3.77
2019-01-08T05:41:30.427Z,4.00
2019-01-08T05:44:03.869Z,4.53
2019-01-08T05:46:33.805Z,4.20
2019-01-08T05:49:04.091Z,4.63
2019-01-08T05:51:34.718Z,4.87
2019-01-08T05:54:04.989Z,4.03
2019-01-08T05:56:36.596Z,4.00
2019-01-08T05:59:06.907Z,3.63
2019-01-08T06:01:38.723Z,2.10
2019-01-08T06:04:09.065Z,2.43
2019-01-08T06:06:44.925Z,2.92
2019-01-08T06:09:11.500Z,3.73
2019-01-08T06:11:53.108Z,3.37
2019-01-08T06:14:23.428Z,5.30
2019-01-08T06:16:55.493Z,4.95
2019-01-08T06:19:27.470Z,4.07
2019-01-08T06:21:58.005Z,4.83
2019-01-08T06:24:28.496Z,5.13
2019-01-08T06:27:01.587Z,4.72
2019-01-08T06:29:31.917Z,3.97
2019-01-08T06:32:03.341Z,3.70
2019-01-08T06:34:33.828Z,3.70
2019-01-08T06:37:05.843Z,4.30
2019-01-08T06:39:36.183Z,4.40
2019-01-08T06:42:07.863Z,4.90
2019-01-08T06:44:39.514Z,5.80
2019-01-08T06:47:12.491Z,5.77
2019-01-08T06:49:43.155Z,5.23
2019-01-08T06:52:13.715Z,4.90
2019-01-08T06:54:44.197Z,3.73
2019-01-08T06:57:16.650Z,2.67
2019-01-08T06:59:47.258Z,3.50
2019-01-08T07:02:17.660Z,3.33
2019-01-08T07:04:48.027Z,2.87
2019-01-08T07:07:20.933Z,2.83
2019-01-08T07:09:50.694Z,3.08
2019-01-08T07:12:21.356Z,3.87
2019-01-08T07:14:51.946Z,3.33
2019-01-08T07:17:22.265Z,3.43
2019-01-08T07:19:54.214Z,3.27
2019-01-08T07:22:24.619Z,5.80
2019-01-08T07:24:54.871Z,5.65
2019-01-08T07:27:25.183Z,6.13
2019-01-08T07:29:55.764Z,5.83
2019-01-08T07:32:27.805Z,4.90
2019-01-08T07:35:00.549Z,5.08
2019-01-08T07:37:32.798Z,5.50
2019-01-08T07:40:06.478Z,5.95
2019-01-08T07:42:41.488Z,6.00
2019-01-08T07:45:11.834Z,5.60
2019-01-08T07:47:42.461Z,5.07
2019-01-08T07:50:13.705Z,5.18
2019-01-08T07:52:44.010Z,5.03
2019-01-08T07:55:14.688Z,4.93
2019-01-08T07:57:45.003Z,4.60
2019-01-08T08:00:16.944Z,4.44
2019-01-08T08:02:48.922Z,4.30
2019-01-08T08:05:22.302Z,4.38
2019-01-08T08:07:54.677Z,4.15
2019-01-08T08:10:25.279Z,4.00
2019-01-08T08:12:55.599Z,4.43
2019-01-08T08:15:26.146Z,4.50
2019-01-08T08:17:56.447Z,4.53
2019-01-08T08:20:26.830Z,4.33
2019-01-08T08:23:00.469Z,3.93
2019-01-08T08:25:30.419Z,3.53
2019-01-08T08:28:00.855Z,3.75
2019-01-08T08:30:31.168Z,4.10
2019-01-08T08:33:01.849Z,3.93
2019-01-08T08:35:32.432Z,3.85
2019-01-08T08:38:02.737Z,3.67
2019-01-08T08:40:34.223Z,4.00
2019-01-08T08:43:04.870Z,3.62
2019-01-08T08:45:35.499Z,4.37
2019-01-08T08:48:06.032Z,4.43
2019-01-08T08:50:36.331Z,4.13
2019-01-08T08:53:08.378Z,4.03
2019-01-08T08:55:40.135Z,3.37
2019-01-08T08:58:11.994Z,3.30
2019-01-08T09:00:42.280Z,3.27
2019-01-08T09:03:18.578Z,3.33
2019-01-08T09:05:48.932Z,3.13
2019-01-08T09:08:27.175Z,5.05
2019-01-08T09:10:56.550Z,3.60
2019-01-08T09:13:28.526Z,3.90
2019-01-08T09:15:58.759Z,3.33
2019-01-08T09:18:29.461Z,4.53
2019-01-08T09:21:00.065Z,4.30
2019-01-08T09:23:31.352Z,2.98
2019-01-08T09:26:04.466Z,3.57
2019-01-08T09:28:35.333Z,3.30
2019-01-08T09:31:05.959Z,3.80
2019-01-08T09:33:37.324Z,3.77
2019-01-08T09:36:08.272Z,4.15
2019-01-08T09:38:38.827Z,3.20
2019-01-08T09:41:09.467Z,4.47
2019-01-08T09:43:39.790Z,3.83
2019-01-08T09:46:10.729Z,3.92
2019-01-08T09:48:42.434Z,4.30
2019-01-08T09:51:13.036Z,4.15
2019-01-08T09:53:50.314Z,4.07
2019-01-08T09:56:22.548Z,3.93
2019-01-08T09:58:52.904Z,4.57
2019-01-08T10:01:24.561Z,5.55
2019-01-08T10:03:55.153Z,4.73
2019-01-08T10:06:26.894Z,4.17
2019-01-08T10:08:57.233Z,4.57
2019-01-08T10:11:27.786Z,4.70
2019-01-08T10:13:58.311Z,5.63
2019-01-08T10:16:37.248Z,5.03
2019-01-08T10:19:06.770Z,5.67
2019-01-08T10:21:38.759Z,5.93
2019-01-08T10:24:09.127Z,5.50
2019-01-08T10:26:40.830Z,4.23
2019-01-08T10:29:11.398Z,4.47
2019-01-08T10:31:42.001Z,5.20
2019-01-08T10:34:12.355Z,5.13
2019-01-08T10:36:43.541Z,5.05
2019-01-08T10:39:13.843Z,6.17
2019-01-08T10:41:45.542Z,6.13
2019-01-08T10:44:17.297Z,5.03
2019-01-08T10:46:50.872Z,5.10
2019-01-08T10:49:22.374Z,5.17
2019-01-08T10:51:52.931Z,4.80
2019-01-08T10:54:24.392Z,4.60
2019-01-08T10:56:56.983Z,5.75
2019-01-08T10:59:27.418Z,4.13
2019-01-08T11:01:57.815Z,4.73
2019-01-08T11:04:28.407Z,5.70
2019-01-08T11:07:04.127Z,5.17
2019-01-08T11:09:34.597Z,4.73
2019-01-08T11:12:05.963Z,6.03
2019-01-08T11:14:37.655Z,4.97
2019-01-08T11:17:07.955Z,5.07
2019-01-08T11:19:38.335Z,4.07
2019-01-08T11:22:08.693Z,4.00
2019-01-08T11:24:39.981Z,4.83
2019-01-08T11:27:10.552Z,4.63
2019-01-08T11:29:41.442Z,4.70
2019-01-08T11:32:11.805Z,5.07
2019-01-08T11:34:43.989Z,4.92
2019-01-08T11:37:14.660Z,3.50
2019-01-08T11:39:48.345Z,4.37
2019-01-08T11:42:18.657Z,4.23
2019-01-08T11:44:49.324Z,3.37
2019-01-08T11:47:19.628Z,4.10
2019-01-08T11:49:50.600Z,4.73
2019-01-08T11:52:20.912Z,3.80
2019-01-08T11:54:51.214Z,4.37
2019-01-08T11:57:21.829Z,3.42
2019-01-08T11:59:52.128Z,3.83
2019-01-08T12:02:22.497Z,3.27
2019-01-08T12:04:52.938Z,3.87
2019-01-08T12:07:31.090Z,2.40
2019-01-08T12:09:56.935Z,2.87
2019-01-08T12:12:27.288Z,2.90
2019-01-08T12:14:57.904Z,2.93
2019-01-08T12:17:28.254Z,2.70
2019-01-08T12:20:10.729Z,3.03
2019-01-08T12:22:43.664Z,3.40
2019-01-08T12:25:14.093Z,3.90
2019-01-08T12:27:44.458Z,4.47
2019-01-08T12:30:16.389Z,5.03
2019-01-08T12:32:46.798Z,4.50
2019-01-08T12:35:19.194Z,4.60
2019-01-08T12:37:49.495Z,4.53
2019-01-08T12:40:21.126Z,4.80
2019-01-08T12:42:51.442Z,5.27
2019-01-08T12:45:21.822Z,4.53
2019-01-08T12:47:53.288Z,5.42
2019-01-08T12:50:23.571Z,5.07
2019-01-08T12:52:57.827Z,4.15
2019-01-08T12:55:29.848Z,5.17
2019-01-08T12:58:09.985Z,4.30
2019-01-08T13:00:38.294Z,5.13
2019-01-08T13:03:11.305Z,4.90
2019-01-08T13:05:41.578Z,4.50
2019-01-08T13:08:12.328Z,3.95
2019-01-08T13:10:42.631Z,4.10
2019-01-08T13:13:12.967Z,4.37
2019-01-08T13:15:43.498Z,4.63
2019-01-08T13:18:13.949Z,3.73
2019-01-08T13:20:48.328Z,4.60
2019-01-08T13:23:18.993Z,4.73
2019-01-08T13:25:49.351Z,4.00
2019-01-08T13:28:19.652Z,2.80
2019-01-08T13:30:50.215Z,5.33
2019-01-08T13:33:20.537Z,3.70
2019-01-08T13:35:50.891Z,3.90
2019-01-08T13:38:21.206Z,4.33
2019-01-08T13:40:51.695Z,5.50
2019-01-08T13:43:23.857Z,4.83
2019-01-08T13:45:54.177Z,3.63
2019-01-08T13:48:24.455Z,3.73
2019-01-08T13:50:56.176Z,2.72
2019-01-08T13:53:26.528Z,3.40
2019-01-08T13:55:57.137Z,2.13
2019-01-08T13:58:27.580Z,2.47
2019-01-08T14:00:58.967Z,3.20
2019-01-08T14:03:32.275Z,3.13
2019-01-08T14:06:02.860Z,1.95
2019-01-08T14:08:33.333Z,3.10
2019-01-08T14:11:03.983Z,2.90
2019-01-08T14:13:34.642Z,2.80
2019-01-08T14:16:07.514Z,3.43
2019-01-08T14:18:38.140Z,3.02
2019-01-08T14:21:09.838Z,3.55
2019-01-08T14:23:40.122Z,3.40
2019-01-08T14:26:12.489Z,4.13
2019-01-08T14:28:42.939Z,3.17
2019-01-08T14:31:13.295Z,3.17
2019-01-08T14:33:44.212Z,2.90
2019-01-08T14:36:14.758Z,2.33
2019-01-08T14:38:45.065Z,2.75
2019-01-08T14:41:16.472Z,2.93
2019-01-08T14:43:46.912Z,2.23
2019-01-08T14:46:17.245Z,2.20
2019-01-08T14:48:47.839Z,2.43
2019-01-08T14:51:18.494Z,2.70
2019-01-08T14:53:48.997Z,2.58
2019-01-08T14:56:19.626Z,2.33
2019-01-08T14:58:51.843Z,3.02
2019-01-08T15:01:22.251Z,3.57
2019-01-08T15:03:52.868Z,2.50
2019-01-08T15:06:23.451Z,2.52
2019-01-08T15:09:04.653Z,2.47
2019-01-08T15:11:35.197Z,2.37
2019-01-08T15:14:05.645Z,3.17
2019-01-08T15:16:35.971Z,3.10
2019-01-08T15:19:08.109Z,3.16
2019-01-08T15:21:39.226Z,3.10
2019-01-08T15:24:09.881Z,3.00
2019-01-08T15:26:40.334Z,3.90
2019-01-08T15:29:10.890Z,3.03
2019-01-08T15:31:41.622Z,2.90
2019-01-08T15:34:17.148Z,3.57
2019-01-08T15:36:47.507Z,4.50
2019-01-08T15:39:18.169Z,4.00
2019-01-08T15:41:51.088Z,2.77
2019-01-08T15:44:21.730Z,3.12
2019-01-08T15:46:52.181Z,3.67
2019-01-08T15:49:23.623Z,3.13
2019-01-08T15:51:54.185Z,3.63
2019-01-08T15:54:24.791Z,3.65
2019-01-08T15:56:55.193Z,4.30
2019-01-08T15:59:25.827Z,4.12
2019-01-08T16:01:56.370Z,3.63
2019-01-08T16:04:27.014Z,3.37
2019-01-08T16:06:58.921Z,3.00
2019-01-08T16:09:29.291Z,4.03
2019-01-08T16:11:59.623Z,3.90
2019-01-08T16:14:32.055Z,3.27
2019-01-08T16:17:05.615Z,3.23
2019-01-08T16:19:37.115Z,3.73
2019-01-08T16:22:09.604Z,3.60
2019-01-08T16:24:40.275Z,3.37
2019-01-08T16:27:10.722Z,3.50
2019-01-08T16:29:41.672Z,2.87
2019-01-08T16:32:12.567Z,3.57
2019-01-08T16:34:43.535Z,3.97
2019-01-08T16:37:15.047Z,3.30
2019-01-08T16:39:45.355Z,4.23
2019-01-08T16:42:16.711Z,3.80
2019-01-08T16:44:47.642Z,4.20
2019-01-08T16:47:20.066Z,3.27
2019-01-08T16:49:50.825Z,2.90
2019-01-08T16:52:23.628Z,3.00
2019-01-08T16:54:53.976Z,3.07
2019-01-08T16:57:24.724Z,3.98
2019-01-08T16:59:56.404Z,3.57
2019-01-08T17:02:26.784Z,3.37
2019-01-08T17:04:58.385Z,3.50
2019-01-08T17:07:31.247Z,3.55
2019-01-08T17:10:01.687Z,2.90
2019-01-08T17:12:32.518Z,3.30
2019-01-08T17:15:02.938Z,3.50
2019-01-08T17:17:33.617Z,3.50
2019-01-08T17:20:04.554Z,3.50
2019-01-08T17:22:36.758Z,3.15
2019-01-08T17:25:07.534Z,2.77
2019-01-08T17:27:39.215Z,2.90
2019-01-08T17:30:11.703Z,3.57
2019-01-08T17:32:42.139Z,3.10
2019-01-08T17:35:12.803Z,3.07
2019-01-08T17:37:43.674Z,3.73
2019-01-08T17:40:14.136Z,3.20
2019-01-08T17:42:46.346Z,3.47
2019-01-08T17:45:16.666Z,3.57
2019-01-08T17:47:51.864Z,3.42
2019-01-08T17:50:22.478Z,3.27
2019-01-08T17:52:53.580Z,3.93
2019-01-08T17:55:23.937Z,3.77
2019-01-08T17:58:31.151Z,3.50
2019-01-08T18:01:07.244Z,3.25
2019-01-08T18:03:42.655Z,3.73
2019-01-08T18:06:10.111Z,3.70
2019-01-08T18:08:40.761Z,3.90
2019-01-08T18:11:12.273Z,3.10
2019-01-08T18:13:50.537Z,3.60
2019-01-08T18:16:21.161Z,3.13
2019-01-08T18:18:51.732Z,3.80
2019-01-08T18:21:22.690Z,3.47
2019-01-08T18:23:53.050Z,2.90
2019-01-08T18:26:25.443Z,2.72
2019-01-08T18:28:56.000Z,3.23
2019-01-08T18:31:29.708Z,3.53
2019-01-08T18:34:00.076Z,3.83
2019-01-08T18:36:33.482Z,3.05
2019-01-08T18:39:07.506Z,3.77
2019-01-08T18:41:40.639Z,3.33
2019-01-08T18:44:11.103Z,3.33
2019-01-08T18:46:41.857Z,2.90
2019-01-08T18:49:12.192Z,3.27
2019-01-08T18:51:45.398Z,3.64
2019-01-08T18:54:15.857Z,3.63
2019-01-08T18:56:46.999Z,3.25
2019-01-08T18:59:17.485Z,3.93
2019-01-08T19:01:48.515Z,3.70
2019-01-08T19:04:27.408Z,3.03
2019-01-08T19:06:58.211Z,2.27
2019-01-08T19:09:35.678Z,2.60
2019-01-08T19:12:11.447Z,2.52
2019-01-08T19:14:43.914Z,2.37
2019-01-08T19:17:14.284Z,2.22
2019-01-08T19:19:45.923Z,2.40
2019-01-08T19:22:18.076Z,2.55
2019-01-08T19:24:50.774Z,3.40
2019-01-08T19:27:23.029Z,3.40
2019-01-08T19:29:53.419Z,3.50
2019-01-08T19:32:24.140Z,4.58
2019-01-08T19:34:56.082Z,4.23
2019-01-08T19:37:27.639Z,4.08
2019-01-08T19:39:58.031Z,3.63
2019-01-08T19:42:30.051Z,5.02
2019-01-08T19:45:01.493Z,4.37
2019-01-08T19:47:32.019Z,4.20
2019-01-08T19:50:02.653Z,4.33
2019-01-08T19:52:33.099Z,4.60
2019-01-08T19:55:07.836Z,4.93
2019-01-08T19:57:38.254Z,5.03
2019-01-08T20:00:14.289Z,3.57
2019-01-08T20:02:44.932Z,4.60
2019-01-08T20:05:15.690Z,4.63
2019-01-08T20:07:48.478Z,3.65
2019-01-08T20:10:19.065Z,3.60
2019-01-08T20:12:49.394Z,4.47
2019-01-08T20:15:20.100Z,5.45
2019-01-08T20:17:50.878Z,5.93
2019-01-08T20:20:21.593Z,5.17
2019-01-08T20:22:51.942Z,4.43
2019-01-08T20:25:24.067Z,3.67
2019-01-08T20:27:54.408Z,3.10
2019-01-08T20:30:26.426Z,4.30
2019-01-08T20:32:58.372Z,2.87
2019-01-08T20:35:28.849Z,2.73
2019-01-08T20:37:59.723Z,3.15
2019-01-08T20:40:31.422Z,2.77
2019-01-08T20:43:03.143Z,3.47
2019-01-08T20:45:33.810Z,2.70
2019-01-08T20:48:05.879Z,3.12
2019-01-08T20:50:36.332Z,2.97
2019-01-08T20:53:06.930Z,2.83
2019-01-08T20:55:42.470Z,3.73
2019-01-08T20:58:14.016Z,2.80
2019-01-08T21:00:44.483Z,3.63
2019-01-08T21:03:15.165Z,3.00
2019-01-08T21:05:46.873Z,3.10
2019-01-08T21:08:20.366Z,3.43
2019-01-08T21:10:51.041Z,2.87
2019-01-08T21:13:22.654Z,3.20
2019-01-08T21:15:53.242Z,3.23
2019-01-08T21:18:23.632Z,3.27
2019-01-08T21:20:54.508Z,3.02
2019-01-08T21:23:25.818Z,3.17
2019-01-08T21:25:57.111Z,3.20
2019-01-08T21:28:27.450Z,3.67
2019-01-08T21:31:09.818Z,2.50
2019-01-08T21:33:40.676Z,3.40
2019-01-08T21:36:16.660Z,2.92
2019-01-08T21:38:53.786Z,2.83
2019-01-08T21:41:24.593Z,3.12
2019-01-08T21:43:56.628Z,3.53
2019-01-08T21:46:27.678Z,2.22
2019-01-08T21:48:58.322Z,2.50
2019-01-08T21:51:29.004Z,2.12
2019-01-08T21:54:01.825Z,2.30
2019-01-08T21:56:34.439Z,2.95
2019-01-08T21:59:13.576Z,2.50
2019-01-08T22:01:43.999Z,2.37
2019-01-08T22:04:14.471Z,2.37
2019-01-08T22:06:46.358Z,2.92
2019-01-08T22:09:16.774Z,2.40
2019-01-08T22:11:47.066Z,3.27
2019-01-08T22:14:17.404Z,2.80
2019-01-08T22:16:49.105Z,2.87
2019-01-08T22:19:19.423Z,2.60
2019-01-08T22:21:56.183Z,3.35
2019-01-08T22:24:26.560Z,2.50
2019-01-08T22:26:57.043Z,3.40
2019-01-08T22:29:29.013Z,2.90
2019-01-08T22:31:59.493Z,2.80
2019-01-08T22:34:29.811Z,2.97
2019-01-08T22:37:02.079Z,2.67
2019-01-08T22:39:35.065Z,3.03
2019-01-08T22:42:07.156Z,3.33
2019-01-08T22:44:37.463Z,2.07
2019-01-08T22:47:07.814Z,2.60
2019-01-08T22:49:38.349Z,2.40
2019-01-08T22:52:08.746Z,2.70
2019-01-08T22:54:39.072Z,2.40
2019-01-08T22:57:09.850Z,2.47
2019-01-08T22:59:40.247Z,2.10
2019-01-08T23:02:16.570Z,2.60
2019-01-08T23:04:46.616Z,2.77
2019-01-08T23:07:17.521Z,3.25
2019-01-08T23:09:47.839Z,3.03
2019-01-08T23:12:18.393Z,2.37
2019-01-08T23:14:49.061Z,2.20
2019-01-08T23:17:19.484Z,2.07
2019-01-08T23:19:50.091Z,2.70
2019-01-08T23:22:20.855Z,2.97
2019-01-08T23:24:51.234Z,4.70
2019-01-08T23:27:29.296Z,4.10
2019-01-08T23:29:57.862Z,3.17
2019-01-08T23:32:29.893Z,2.83
2019-01-08T23:35:00.231Z,3.67
2019-01-08T23:37:30.895Z,2.20
2019-01-08T23:40:01.424Z,2.58
2019-01-08T23:42:31.830Z,2.23
2019-01-08T23:45:03.987Z,2.75
2019-01-08T23:47:34.717Z,2.03
2019-01-08T23:50:05.987Z,2.90
2019-01-08T23:53:02.432Z,2.53
2019-01-08T23:55:35.200Z,2.30
2019-01-08T23:58:07.020Z,2.63
